Terminal Aerodrome Forecast
Issued by NWS

Home | Current Version | Previous Version | Text Only | Print | Product List | Glossary On
Versions: 1 2 3 4 5 6 7 8 9 10 11 12 13 14 15
183
FTUS44 KLIX 250522
TAFMSY
TAF
KMSY 250522Z 2506/2606 VRB03KT P6SM SCT015
     FM251000 VRB03KT P6SM BKN015
     FM251500 01006KT P6SM VCTS BKN035CB
     FM260000 06005KT P6SM BKN080=

USA.gov is the U.S. government's official web portal to all federal, state and local government web resources and services.